»·PEaware :: N668DB KBUR-KLAS

N668DB :: KBUR-KLAS

FLIGHT INFORMATION

Flight Status: Arrived
Operator: Privately registered:
United States
More flights under this callsign
Pilot: Shoichiro A. (20956)
Aircraft: CESSNA T210 TURBO CENTURION
(T210)
More flights by this aircraft type
Origin: KBUR Bob Hope-Burbank
United States
Destination: KLAS McCarran Intl
United States
More flights between these airports :: More routes between these airports
Route: +VNY3 DAG CRESO4
File this flight plan on PilotEdge
Remarks:
Altitude:
(Current/Filed)
11,000ft
Speed:
(Current/Filed)
130kts
Departed: 04-Apr-20 05:27 PM
Arrived: 04-Apr-20 08:11 PM
Distance/Time
Traveled:
193nm/2:44
Distance/Time
To Go:
Arrived

Flight Plot

Page will automatically refresh every two minutes.

Flight plan parsing failed; only flown route is shown


Map Options




Map Legend


Flown Route
Filed Route
Departure Airport
Arrival Airport
Navaid (VOR, NDB)
Fix

Horizontal Profiles

Position Reports

Time Latitude Longitude Heading Altitude Ground
Speed
04-Apr-20 16:47 34.196337 -118.367562 358 721ft 0kts
04-Apr-20 16:48 34.196337 -118.367562 358 721ft 0kts
04-Apr-20 16:49 34.196337 -118.367562 358 721ft 0kts
04-Apr-20 16:50 34.196337 -118.367562 358 721ft 0kts
04-Apr-20 16:51 34.196337 -118.367562 358 721ft 0kts
04-Apr-20 16:52 34.196337 -118.367562 358 721ft 0kts
04-Apr-20 16:53 34.196337 -118.367562 358 721ft 0kts
04-Apr-20 16:54 34.196337 -118.367562 358 721ft 0kts
04-Apr-20 16:55 34.196337 -118.367562 358 721ft 0kts
04-Apr-20 16:56 34.196337 -118.367562 358 721ft 0kts
04-Apr-20 16:57 34.196337 -118.367562 358 721ft 0kts
04-Apr-20 16:58 34.196337 -118.367562 358 721ft 0kts
04-Apr-20 16:59 34.196337 -118.367562 358 721ft 0kts
04-Apr-20 17:00 34.196337 -118.367562 358 721ft 0kts
04-Apr-20 17:01 34.196337 -118.367562 358 721ft 0kts
04-Apr-20 17:02 34.196337 -118.367562 358 721ft 0kts
04-Apr-20 17:03 34.196337 -118.367562 358 721ft 0kts
04-Apr-20 17:04 34.196337 -118.367562 358 721ft 0kts
04-Apr-20 17:05 34.196337 -118.367562 358 721ft 0kts
04-Apr-20 17:06 34.196337 -118.367562 358 721ft 0kts
04-Apr-20 17:07 34.196337 -118.367562 358 721ft 0kts
04-Apr-20 17:08 34.196337 -118.367562 358 721ft 0kts
04-Apr-20 17:09 34.196337 -118.367562 358 721ft 0kts
04-Apr-20 17:10 34.196337 -118.367562 358 721ft 0kts
04-Apr-20 17:11 34.196337 -118.367562 358 721ft 0kts
04-Apr-20 17:12 34.196928 -118.366414 85 722ft 10kts
04-Apr-20 17:13 34.196889 -118.363191 90 716ft 11kts
04-Apr-20 17:14 34.196846 -118.358174 58 709ft 11kts
04-Apr-20 17:15 34.198612 -118.357988 359 713ft 7kts
04-Apr-20 17:16 34.201949 -118.358771 343 727ft 10kts
04-Apr-20 17:17 34.205187 -118.359664 346 738ft 8kts
04-Apr-20 17:18 34.207786 -118.360361 346 749ft 14kts
04-Apr-20 17:20 34.210347 -118.361072 347 765ft 6kts
04-Apr-20 17:21 34.211899 -118.361381 21 768ft 0kts
04-Apr-20 17:22 34.211899 -118.361381 21 768ft 0kts
04-Apr-20 17:23 34.211899 -118.361381 21 768ft 0kts
04-Apr-20 17:24 34.211899 -118.361381 21 768ft 0kts
04-Apr-20 17:25 34.211899 -118.361381 21 768ft 0kts
04-Apr-20 17:26 34.211957 -118.361348 28 768ft 3kts
04-Apr-20 17:27 34.196916 -118.355232 158 1215ft 102kts
04-Apr-20 17:28 34.171514 -118.362042 215 2422ft 108kts
04-Apr-20 17:29 34.156154 -118.387238 296 4168ft 106kts
04-Apr-20 17:30 34.183264 -118.397837 349 5738ft 108kts
04-Apr-20 17:31 34.213049 -118.402638 351 6980ft 110kts
04-Apr-20 17:32 34.243748 -118.407724 351 8196ft 113kts
04-Apr-20 17:33 34.274889 -118.412888 351 9408ft 114kts
04-Apr-20 17:34 34.306305 -118.418094 351 10606ft 115kts
04-Apr-20 17:35 34.343052 -118.424210 351 11047ft 162kts
04-Apr-20 17:36 34.387005 -118.411123 40 11037ft 180kts
04-Apr-20 17:37 34.419167 -118.364681 55 11036ft 181kts
04-Apr-20 17:38 34.445194 -118.313272 60 11036ft 181kts
04-Apr-20 17:39 34.474086 -118.265176 20 11042ft 180kts
04-Apr-20 17:40 34.517214 -118.235670 43 11035ft 181kts
04-Apr-20 17:41 34.552439 -118.192335 48 11035ft 181kts
04-Apr-20 17:41 34.577388 -118.151927 53 11035ft 176kts
04-Apr-20 17:42 34.606365 -118.104578 53 11036ft 174kts
04-Apr-20 17:44 34.637056 -118.047991 82 11039ft 173kts
04-Apr-20 17:44 34.640608 -117.999119 84 11036ft 174kts
04-Apr-20 17:45 34.645779 -117.941072 82 11036ft 172kts
04-Apr-20 17:46 34.651783 -117.883498 82 11035ft 172kts
04-Apr-20 17:48 34.659102 -117.816323 82 11036ft 172kts
04-Apr-20 17:48 34.665777 -117.768610 80 11036ft 172kts
04-Apr-20 17:49 34.675686 -117.711716 71 11036ft 172kts
04-Apr-20 17:50 34.690393 -117.656421 72 11036ft 172kts
04-Apr-20 17:51 34.704727 -117.601124 72 11036ft 170kts
04-Apr-20 17:52 34.718863 -117.546277 72 11036ft 170kts
04-Apr-20 17:53 34.732972 -117.491358 72 11036ft 170kts
04-Apr-20 17:54 34.747021 -117.436529 72 11036ft 170kts
04-Apr-20 17:55 34.761122 -117.381390 72 11037ft 172kts
04-Apr-20 17:56 34.775080 -117.326075 73 11036ft 171kts
04-Apr-20 17:57 34.788930 -117.270614 73 11036ft 171kts
04-Apr-20 17:58 34.803069 -117.214624 72 11035ft 173kts
04-Apr-20 17:59 34.817170 -117.158871 72 11036ft 171kts
04-Apr-20 18:00 34.831251 -117.103202 72 11036ft 171kts
04-Apr-20 18:01 34.845274 -117.047647 72 11036ft 171kts
04-Apr-20 18:02 34.856352 -117.003650 72 11036ft 171kts
04-Apr-20 18:03 34.863089 -116.976884 72 11036ft 171kts
04-Apr-20 18:07 34.196337 -118.367565 358 721ft 0kts
04-Apr-20 18:08 34.196337 -118.367565 358 721ft 0kts
04-Apr-20 18:09 34.196337 -118.367565 358 721ft 0kts
04-Apr-20 18:10 34.196337 -118.367565 358 721ft 0kts
04-Apr-20 18:11 34.196337 -118.367565 358 721ft 0kts
04-Apr-20 18:12 34.196337 -118.367565 358 721ft 0kts
04-Apr-20 18:13 34.196337 -118.367565 358 721ft 0kts
04-Apr-20 18:14 34.196337 -118.367565 358 721ft 0kts
04-Apr-20 18:15 34.196337 -118.367565 358 721ft 0kts
04-Apr-20 18:16 34.196337 -118.367565 358 721ft 0kts
04-Apr-20 18:17 34.196337 -118.367565 358 721ft 0kts
04-Apr-20 18:18 34.196337 -118.367565 358 721ft 0kts
04-Apr-20 18:19 34.196337 -118.367565 358 721ft 0kts
04-Apr-20 18:20 34.196337 -118.367565 358 721ft 0kts
04-Apr-20 18:21 34.196337 -118.367565 358 721ft 0kts
04-Apr-20 18:22 34.196337 -118.367565 358 721ft 0kts
04-Apr-20 18:23 34.196337 -118.367565 358 721ft 0kts
04-Apr-20 18:24 34.196337 -118.367565 358 721ft 0kts
04-Apr-20 18:25 34.196337 -118.367565 358 721ft 0kts
04-Apr-20 18:26 34.196337 -118.367565 358 721ft 0kts
04-Apr-20 18:27 34.196471 -118.367525 83 722ft 9kts
04-Apr-20 18:28 34.196933 -118.367843 268 723ft 5kts
04-Apr-20 18:29 34.197062 -118.368892 313 723ft 0kts
04-Apr-20 18:30 34.197860 -118.368639 64 725ft 17kts
04-Apr-20 18:31 34.198152 -118.339335 88 1467ft 124kts
04-Apr-20 18:32 34.177419 -118.331169 223 3322ft 109kts
04-Apr-20 18:33 34.152435 -118.359446 219 4049ft 142kts
04-Apr-20 18:34 34.154567 -118.393825 346 5441ft 139kts
04-Apr-20 18:35 34.194076 -118.400418 352 6651ft 151kts
04-Apr-20 18:36 34.236595 -118.407433 352 7761ft 156kts
04-Apr-20 18:37 34.278899 -118.420374 343 8864ft 157kts
04-Apr-20 18:38 34.317850 -118.434489 343 9934ft 139kts
04-Apr-20 18:39 34.353796 -118.447546 343 10992ft 135kts
04-Apr-20 18:40 34.393260 -118.441683 45 11042ft 173kts
04-Apr-20 18:41 34.425449 -118.395935 53 11037ft 180kts
04-Apr-20 18:42 34.455471 -118.347099 53 11036ft 181kts
04-Apr-20 18:43 34.485550 -118.298119 53 11036ft 181kts
04-Apr-20 18:44 34.515656 -118.249077 53 11036ft 181kts
04-Apr-20 18:45 34.545795 -118.199984 53 11036ft 181kts
04-Apr-20 18:46 34.575888 -118.150955 53 11036ft 181kts
04-Apr-20 18:47 34.606016 -118.101862 53 11036ft 181kts
04-Apr-20 18:48 34.627743 -118.048799 78 11036ft 181kts
04-Apr-20 18:49 34.640436 -117.989501 77 11034ft 181kts
04-Apr-20 18:50 34.648515 -117.929201 81 11036ft 181kts
04-Apr-20 18:51 34.656195 -117.868483 81 11036ft 181kts
04-Apr-20 18:52 34.663049 -117.807811 83 11036ft 181kts
04-Apr-20 18:53 34.668239 -117.746599 80 11035ft 181kts
04-Apr-20 18:54 34.684459 -117.688709 69 11036ft 181kts
04-Apr-20 18:55 34.699908 -117.630308 72 11036ft 180kts
04-Apr-20 18:56 34.714171 -117.572817 72 11036ft 176kts
04-Apr-20 18:57 34.728333 -117.515800 72 11036ft 176kts
04-Apr-20 18:58 34.742503 -117.458785 72 11036ft 176kts
04-Apr-20 18:59 34.756704 -117.401670 72 11036ft 176kts
04-Apr-20 19:00 34.770930 -117.344481 73 11036ft 176kts
04-Apr-20 19:01 34.785120 -117.287459 73 11036ft 176kts
04-Apr-20 19:02 34.799299 -117.230514 73 11036ft 176kts
04-Apr-20 19:03 34.813473 -117.173611 73 11036ft 176kts
04-Apr-20 19:04 34.827649 -117.116728 73 11036ft 176kts
04-Apr-20 19:05 34.841856 -117.059744 73 11036ft 176kts
04-Apr-20 19:06 34.856007 -117.002994 72 11036ft 174kts
04-Apr-20 19:07 34.870057 -116.946681 72 11036ft 174kts
04-Apr-20 19:08 34.884173 -116.890135 72 11036ft 174kts
04-Apr-20 19:09 34.898828 -116.833957 71 11036ft 174kts
04-Apr-20 19:10 34.913708 -116.777937 71 11036ft 174kts
04-Apr-20 19:11 34.928450 -116.722431 71 11176ft 168kts
04-Apr-20 19:12 34.943098 -116.667335 71 11183ft 173kts
04-Apr-20 19:13 34.957140 -116.610900 73 11183ft 174kts
04-Apr-20 19:14 34.976894 -116.557264 61 11182ft 174kts
04-Apr-20 19:15 34.997374 -116.503784 65 11182ft 174kts
04-Apr-20 19:16 35.018592 -116.450785 58 11183ft 174kts
04-Apr-20 19:17 35.042362 -116.399249 60 11182ft 174kts
04-Apr-20 19:18 35.065856 -116.347499 61 11182ft 174kts
04-Apr-20 19:19 35.089338 -116.295781 61 11183ft 174kts
04-Apr-20 19:20 35.112893 -116.243818 61 11182ft 174kts
04-Apr-20 19:21 35.135144 -116.191306 62 11182ft 174kts
04-Apr-20 19:22 35.157101 -116.138706 62 11182ft 174kts
04-Apr-20 19:23 35.179188 -116.085799 62 11182ft 174kts
04-Apr-20 19:24 35.201819 -116.033536 61 11182ft 174kts
04-Apr-20 19:25 35.224623 -115.981192 61 11182ft 174kts
04-Apr-20 19:26 35.247633 -115.928991 59 11183ft 174kts
04-Apr-20 19:27 35.271206 -115.877334 60 11182ft 174kts
04-Apr-20 19:28 35.294801 -115.825392 60 11182ft 174kts
04-Apr-20 19:29 35.324008 -115.778790 45 11183ft 174kts
04-Apr-20 19:30 35.358294 -115.735644 47 10727ft 181kts
04-Apr-20 19:31 35.390843 -115.688783 49 10182ft 174kts
04-Apr-20 19:32 35.420642 -115.645358 49 10181ft 161kts
04-Apr-20 19:34 35.449225 -115.603728 49 10182ft 159kts
04-Apr-20 19:35 35.477661 -115.562312 49 10182ft 158kts
04-Apr-20 19:36 35.506400 -115.521219 46 10182ft 158kts
04-Apr-20 19:37 35.536168 -115.482131 46 10238ft 157kts
04-Apr-20 19:38 35.567054 -115.441666 46 10240ft 170kts
04-Apr-20 19:39 35.599935 -115.398539 46 10238ft 174kts
04-Apr-20 19:40 35.633086 -115.355044 46 10237ft 175kts
04-Apr-20 19:41 35.666460 -115.311229 46 10237ft 175kts
04-Apr-20 19:42 35.699709 -115.267562 46 10237ft 175kts
04-Apr-20 19:43 35.732889 -115.223979 46 10237ft 175kts
04-Apr-20 19:44 35.766111 -115.180327 46 10237ft 175kts
04-Apr-20 19:45 35.812321 -115.169103 1 9723ft 174kts
04-Apr-20 19:46 35.860560 -115.167167 1 9020ft 172kts
04-Apr-20 19:47 35.908203 -115.165256 1 8321ft 171kts
04-Apr-20 19:48 35.955732 -115.163339 1 7619ft 170kts
04-Apr-20 19:49 36.001803 -115.161442 1 6966ft 157kts
04-Apr-20 19:50 36.043203 -115.159745 1 6485ft 146kts
04-Apr-20 19:51 36.083320 -115.158114 1 5984ft 143kts
04-Apr-20 19:52 36.122430 -115.156563 1 5954ft 136kts
04-Apr-20 19:52 36.152874 -115.154550 19 6614ft 130kts
04-Apr-20 19:54 36.189804 -115.127212 31 7245ft 146kts
04-Apr-20 19:55 36.226834 -115.098686 31 7239ft 162kts
04-Apr-20 19:55 36.259051 -115.073821 31 7237ft 164kts
04-Apr-20 19:56 36.297909 -115.043815 31 7238ft 166kts
04-Apr-20 19:58 36.344269 -115.008007 31 7238ft 168kts
04-Apr-20 19:58 36.377415 -114.982390 31 7237ft 168kts
04-Apr-20 19:59 36.379337 -114.941716 170 7237ft 168kts
04-Apr-20 20:00 36.334710 -114.946334 205 6748ft 163kts
04-Apr-20 20:01 36.301276 -114.978146 215 6553ft 153kts
04-Apr-20 20:02 36.267006 -115.009983 214 6148ft 153kts
04-Apr-20 20:03 36.232038 -115.039488 215 5753ft 153kts
04-Apr-20 20:04 36.202667 -115.067322 209 4851ft 101kts
04-Apr-20 20:05 36.179235 -115.087631 214 4362ft 107kts
04-Apr-20 20:06 36.155107 -115.107973 213 3883ft 109kts
04-Apr-20 20:07 36.139683 -115.122827 222 3624ft 94kts
04-Apr-20 20:08 36.123589 -115.139528 210 3168ft 72kts
04-Apr-20 20:09 36.107950 -115.151573 206 2490ft 63kts
04-Apr-20 20:10 36.094021 -115.159659 208 2103ft 33kts
04-Apr-20 20:11 36.089434 -115.163567 302 2128ft 0kts
04-Apr-20 20:12 36.089434 -115.163567 302 2128ft 0kts
04-Apr-20 20:13 36.089434 -115.163567 302 2128ft 0kts
04-Apr-20 20:14 36.088339 -115.165319 203 2137ft 13kts
04-Apr-20 20:15 36.085381 -115.167752 237 2153ft 8kts
04-Apr-20 20:16 36.084646 -115.168253 161 2156ft 0kts

Navigation Log

Ident Type
Flight plan parsing failed, navigation log unavailable